createdAt,value
2023-02-20T00:01:31.693Z,1.30
2023-02-20T00:03:58.199Z,1.80
2023-02-20T00:06:24.650Z,1.33
2023-02-20T00:08:51.076Z,0.50
2023-02-20T00:11:17.706Z,1.00
2023-02-20T00:13:48.468Z,1.00
2023-02-20T00:16:15.397Z,2.00
2023-02-20T00:18:41.896Z,0.50
2023-02-20T00:21:08.414Z,0.73
2023-02-20T00:23:35.455Z,1.10
2023-02-20T00:26:01.849Z,1.17
2023-02-20T00:28:29.818Z,0.97
2023-02-20T00:30:56.891Z,1.40
2023-02-20T00:33:23.489Z,2.10
2023-02-20T00:35:49.945Z,1.20
2023-02-20T00:38:16.793Z,1.70
2023-02-20T00:40:43.243Z,0.97
2023-02-20T00:43:09.641Z,0.87
2023-02-20T00:45:36.065Z,1.67
2023-02-20T00:48:02.485Z,1.00
2023-02-20T00:50:28.852Z,0.90
2023-02-20T00:52:55.307Z,0.87
2023-02-20T00:55:21.695Z,1.33
2023-02-20T00:57:48.318Z,0.83
2023-02-20T01:00:21.988Z,1.27
2023-02-20T01:02:48.492Z,0.73
2023-02-20T01:05:15.133Z,1.10
2023-02-20T01:07:41.577Z,0.70
2023-02-20T01:10:09.270Z,0.77
2023-02-20T01:12:35.754Z,1.07
2023-02-20T01:15:02.292Z,0.93
2023-02-20T01:17:28.967Z,1.10
2023-02-20T01:19:56.005Z,1.23
2023-02-20T01:22:22.787Z,1.50
2023-02-20T01:24:49.522Z,0.50
2023-02-20T01:27:16.903Z,1.20
2023-02-20T01:29:43.339Z,0.50
2023-02-20T01:32:12.928Z,1.13
2023-02-20T01:34:40.345Z,0.87
2023-02-20T01:37:06.800Z,1.77
2023-02-20T01:39:33.307Z,0.50
2023-02-20T01:42:06.984Z,1.60
2023-02-20T01:44:35.637Z,1.20
2023-02-20T01:47:09.515Z,0.70
2023-02-20T01:49:38.120Z,1.00
2023-02-20T01:52:27.313Z,1.13
2023-02-20T01:55:11.202Z,1.13
2023-02-20T01:57:43.232Z,1.30
2023-02-20T02:00:14.272Z,0.90
2023-02-20T02:02:44.701Z,0.70
2023-02-20T02:05:12.371Z,0.67
2023-02-20T02:07:39.729Z,0.67
2023-02-20T02:10:07.874Z,0.63
2023-02-20T02:12:35.636Z,1.13
2023-02-20T02:15:02.137Z,0.67
2023-02-20T02:18:11.074Z,1.17
2023-02-20T02:21:16.124Z,1.23
2023-02-20T02:23:48.223Z,0.97
2023-02-20T02:26:32.896Z,1.53
2023-02-20T02:29:15.936Z,0.50
2023-02-20T02:32:00.552Z,0.70
2023-02-20T02:34:55.863Z,1.10
2023-02-20T02:37:31.542Z,0.60
2023-02-20T02:40:00.716Z,0.50
2023-02-20T02:42:44.742Z,0.87
2023-02-20T02:45:38.582Z,1.10
2023-02-20T02:48:24.452Z,0.87
2023-02-20T02:50:54.529Z,0.37
2023-02-20T02:53:21.089Z,0.80
2023-02-20T02:55:47.696Z,1.00
2023-02-20T02:58:15.853Z,0.60
2023-02-20T03:01:00.353Z,1.30
2023-02-20T03:03:37.043Z,0.57
2023-02-20T03:06:15.367Z,0.67
2023-02-20T03:08:57.293Z,0.87
2023-02-20T03:11:26.825Z,0.87
2023-02-20T03:14:37.679Z,1.50
2023-02-20T03:17:12.892Z,0.63
2023-02-20T03:19:46.623Z,0.30
2023-02-20T03:22:24.176Z,0.57
2023-02-20T03:24:56.223Z,0.47
2023-02-20T03:27:59.254Z,1.03
2023-02-20T03:30:40.826Z,0.93
2023-02-20T03:33:33.776Z,1.30
2023-02-20T03:36:20.602Z,0.60
2023-02-20T03:39:12.060Z,0.93
2023-02-20T03:42:00.307Z,0.60
2023-02-20T03:44:28.292Z,0.40
2023-02-20T03:46:57.533Z,0.50
2023-02-20T03:49:31.188Z,0.50
2023-02-20T03:51:58.141Z,0.77
2023-02-20T03:54:25.917Z,0.33
2023-02-20T03:57:01.484Z,0.50
2023-02-20T03:59:37.468Z,0.77
2023-02-20T04:02:10.730Z,0.60
2023-02-20T04:04:45.360Z,0.30
2023-02-20T04:07:24.393Z,0.77
2023-02-20T04:09:52.223Z,0.80
2023-02-20T04:12:32.680Z,0.67
2023-02-20T04:15:01.859Z,1.40
2023-02-20T04:17:32.456Z,0.80
2023-02-20T04:19:58.981Z,1.03
2023-02-20T04:22:31.335Z,1.40
2023-02-20T04:25:35.487Z,0.73
2023-02-20T04:28:05.241Z,0.83
2023-02-20T04:30:32.268Z,1.17
2023-02-20T04:32:58.822Z,0.40
2023-02-20T04:35:25.424Z,0.90
2023-02-20T04:37:51.808Z,0.47
2023-02-20T04:40:21.504Z,1.00
2023-02-20T04:42:48.010Z,1.10
2023-02-20T04:45:14.752Z,1.10
2023-02-20T04:47:41.143Z,0.63
2023-02-20T04:50:07.941Z,0.50
2023-02-20T04:52:34.464Z,0.30
2023-02-20T04:55:00.915Z,0.53
2023-02-20T04:57:27.372Z,0.70
2023-02-20T04:59:53.807Z,0.43
2023-02-20T05:02:20.220Z,0.50
2023-02-20T05:04:46.685Z,0.70
2023-02-20T05:07:13.185Z,1.53
2023-02-20T05:09:43.204Z,0.80
2023-02-20T05:12:10.316Z,0.70
2023-02-20T05:14:36.777Z,0.70
2023-02-20T05:17:03.247Z,0.87
2023-02-20T05:19:29.661Z,0.80
2023-02-20T05:22:14.748Z,0.60
2023-02-20T05:24:44.636Z,1.97
2023-02-20T05:27:12.055Z,0.53
2023-02-20T05:29:38.564Z,0.70
2023-02-20T05:32:05.222Z,1.03
2023-02-20T05:34:31.667Z,0.53
2023-02-20T05:36:58.205Z,0.90
2023-02-20T05:39:24.587Z,0.60
2023-02-20T05:41:51.029Z,0.83
2023-02-20T05:44:17.509Z,0.80
2023-02-20T05:46:44.105Z,0.57
2023-02-20T05:49:11.246Z,1.23
2023-02-20T05:51:38.190Z,0.50
2023-02-20T05:54:05.573Z,0.87
2023-02-20T05:56:33.008Z,1.50
2023-02-20T05:59:00.277Z,0.50
2023-02-20T06:01:29.143Z,0.50
2023-02-20T06:03:55.705Z,0.77
2023-02-20T06:06:23.008Z,0.70
2023-02-20T06:08:49.648Z,0.73
2023-02-20T06:11:16.651Z,0.67
2023-02-20T06:13:44.626Z,1.43
2023-02-20T06:16:11.697Z,1.53
2023-02-20T06:18:42.561Z,0.80
2023-02-20T06:21:10.237Z,0.97
2023-02-20T06:23:42.808Z,1.53
2023-02-20T06:26:09.265Z,0.70
2023-02-20T06:28:37.856Z,0.70
2023-02-20T06:31:05.197Z,2.53
2023-02-20T06:33:31.797Z,0.50
2023-02-20T06:35:58.223Z,2.07
2023-02-20T06:38:25.576Z,1.10
2023-02-20T06:40:52.421Z,0.90
2023-02-20T06:43:19.257Z,0.90
2023-02-20T06:45:46.371Z,2.00
2023-02-20T06:48:16.236Z,1.07
2023-02-20T06:50:43.075Z,0.60
2023-02-20T06:53:09.800Z,0.73
2023-02-20T06:55:36.178Z,0.70
2023-02-20T06:58:02.595Z,0.97
2023-02-20T07:00:29.179Z,1.03
2023-02-20T07:02:55.732Z,1.37
2023-02-20T07:05:22.291Z,0.60
2023-02-20T07:07:49.352Z,0.60
2023-02-20T07:10:15.910Z,0.70
2023-02-20T07:12:42.329Z,0.77
2023-02-20T07:15:11.074Z,0.83
2023-02-20T07:17:37.490Z,0.50
2023-02-20T07:20:05.518Z,0.80
2023-02-20T07:22:31.953Z,0.73
2023-02-20T07:24:58.508Z,0.97
2023-02-20T07:27:25.648Z,0.90
2023-02-20T07:29:52.032Z,0.80
2023-02-20T07:32:20.617Z,0.67
2023-02-20T07:35:02.430Z,1.47
2023-02-20T07:37:29.721Z,0.47
2023-02-20T07:39:56.140Z,0.97
2023-02-20T07:42:22.900Z,1.30
2023-02-20T07:44:49.586Z,2.10
2023-02-20T07:47:16.056Z,0.80
2023-02-20T07:49:42.523Z,0.50
2023-02-20T07:52:08.916Z,2.30
2023-02-20T07:54:35.424Z,1.47
2023-02-20T07:57:02.103Z,2.33
2023-02-20T07:59:28.530Z,4.83
2023-02-20T08:01:54.989Z,2.40
2023-02-20T08:04:21.419Z,2.00
2023-02-20T08:06:47.812Z,1.90
2023-02-20T08:09:14.268Z,2.20
2023-02-20T08:11:40.737Z,4.17
2023-02-20T08:14:07.907Z,3.87
2023-02-20T08:16:34.420Z,2.30
2023-02-20T08:19:01.048Z,1.80
2023-02-20T08:21:27.871Z,2.47
2023-02-20T08:23:55.091Z,3.20
2023-02-20T08:26:21.817Z,1.73
2023-02-20T08:28:49.494Z,2.87
2023-02-20T08:31:29.971Z,3.50
2023-02-20T08:33:57.466Z,2.83
2023-02-20T08:36:23.837Z,3.70
2023-02-20T08:38:50.227Z,4.00
2023-02-20T08:41:16.645Z,2.83
2023-02-20T08:43:44.307Z,2.03
2023-02-20T08:46:11.339Z,2.87
2023-02-20T08:48:38.357Z,4.40
2023-02-20T08:51:06.335Z,3.33
2023-02-20T08:53:33.760Z,3.33
2023-02-20T08:56:00.542Z,3.03
2023-02-20T08:58:27.188Z,2.53
2023-02-20T09:00:54.653Z,3.60
2023-02-20T09:03:21.835Z,1.40
2023-02-20T09:05:48.399Z,2.93
2023-02-20T09:08:14.994Z,4.83
2023-02-20T09:10:41.671Z,3.57
2023-02-20T09:13:08.555Z,3.90
2023-02-20T09:15:39.601Z,4.83
2023-02-20T09:18:09.614Z,5.67
2023-02-20T09:20:37.496Z,3.40
2023-02-20T09:23:04.269Z,4.90
2023-02-20T09:25:30.837Z,3.67
2023-02-20T09:27:57.386Z,3.60
2023-02-20T09:30:24.080Z,3.50
2023-02-20T09:32:51.819Z,3.20
2023-02-20T09:35:23.713Z,4.43
2023-02-20T09:37:50.681Z,3.10
2023-02-20T09:40:21.072Z,3.93
2023-02-20T09:42:59.515Z,4.00
2023-02-20T09:45:29.490Z,3.33
2023-02-20T09:47:58.788Z,5.03
2023-02-20T09:50:28.482Z,4.97
2023-02-20T09:53:02.302Z,3.90
2023-02-20T09:55:36.052Z,3.20
2023-02-20T09:58:05.485Z,3.10
2023-02-20T10:00:35.491Z,3.00
2023-02-20T10:03:25.011Z,3.73
2023-02-20T10:05:52.168Z,3.10
2023-02-20T10:08:21.676Z,3.13
2023-02-20T10:10:53.221Z,3.03
2023-02-20T10:13:34.783Z,4.10
2023-02-20T10:16:07.197Z,4.10
2023-02-20T10:18:33.576Z,4.27
2023-02-20T10:21:23.542Z,2.90
2023-02-20T10:24:05.080Z,3.13
2023-02-20T10:26:46.760Z,2.20
2023-02-20T10:29:27.954Z,3.33
2023-02-20T10:32:08.046Z,1.73
2023-02-20T10:34:57.041Z,2.97
2023-02-20T10:37:35.914Z,3.30
2023-02-20T10:40:21.965Z,3.60
2023-02-20T10:42:54.249Z,3.60
2023-02-20T10:45:37.645Z,3.67
2023-02-20T10:48:09.670Z,2.80
2023-02-20T10:51:05.112Z,1.53
2023-02-20T10:53:46.186Z,2.17
2023-02-20T10:56:20.574Z,1.40
2023-02-20T10:59:11.125Z,2.40
2023-02-20T11:01:39.213Z,3.00
2023-02-20T11:04:27.412Z,1.87
2023-02-20T11:06:59.866Z,2.67
2023-02-20T11:09:27.436Z,1.87
2023-02-20T11:11:55.852Z,2.33
2023-02-20T11:14:42.161Z,3.30
2023-02-20T11:17:20.221Z,2.17
2023-02-20T11:19:53.724Z,2.07
2023-02-20T11:22:44.382Z,1.47
2023-02-20T11:25:31.580Z,1.53
2023-02-20T11:28:08.787Z,1.80
2023-02-20T11:30:39.078Z,1.50
2023-02-20T11:33:06.536Z,3.00
2023-02-20T11:35:40.625Z,2.50
2023-02-20T11:38:18.932Z,1.23
2023-02-20T11:40:48.545Z,2.30
2023-02-20T11:43:25.606Z,1.93
2023-02-20T11:46:08.362Z,2.50
2023-02-20T11:48:34.852Z,1.30
2023-02-20T11:51:01.304Z,3.77
2023-02-20T11:53:32.147Z,2.53
2023-02-20T11:56:17.987Z,1.37
2023-02-20T11:58:46.919Z,1.13
2023-02-20T12:01:35.432Z,2.70
2023-02-20T12:04:01.975Z,1.10
2023-02-20T12:06:33.996Z,2.00
2023-02-20T12:09:03.104Z,1.77
2023-02-20T12:11:30.505Z,1.03
2023-02-20T12:13:59.313Z,1.37
2023-02-20T12:16:42.628Z,1.30
2023-02-20T12:19:18.384Z,1.30
2023-02-20T12:21:50.705Z,0.70
2023-02-20T12:24:52.057Z,1.27
2023-02-20T12:27:43.076Z,1.33
2023-02-20T12:30:21.780Z,1.10
2023-02-20T12:33:06.314Z,1.00
2023-02-20T12:35:35.127Z,0.97
2023-02-20T12:38:39.876Z,1.70
2023-02-20T12:41:27.424Z,1.03
2023-02-20T12:44:02.235Z,1.40
2023-02-20T12:46:58.520Z,0.77
2023-02-20T12:49:39.938Z,0.50
2023-02-20T12:52:20.889Z,0.80
2023-02-20T12:55:14.711Z,1.13
2023-02-20T12:57:51.180Z,0.87
2023-02-20T13:00:40.348Z,1.10
2023-02-20T13:03:34.538Z,0.60
2023-02-20T13:06:01.381Z,1.53
2023-02-20T13:08:33.443Z,1.10
2023-02-20T13:11:04.056Z,1.07
2023-02-20T13:13:42.545Z,0.63
2023-02-20T13:16:28.938Z,0.93
2023-02-20T13:19:06.692Z,0.93
2023-02-20T13:21:33.531Z,0.67
2023-02-20T13:24:18.756Z,0.80
2023-02-20T13:26:56.768Z,1.33
2023-02-20T13:29:27.523Z,0.60
2023-02-20T13:32:15.967Z,1.87
2023-02-20T13:34:42.551Z,0.53
2023-02-20T13:37:51.618Z,1.37
2023-02-20T13:40:26.991Z,1.33
2023-02-20T13:43:15.177Z,1.40
2023-02-20T13:45:43.962Z,2.30
2023-02-20T13:48:29.411Z,1.77
2023-02-20T13:51:14.464Z,1.23
2023-02-20T13:53:43.115Z,1.03
2023-02-20T13:56:25.189Z,0.90
2023-02-20T13:58:54.380Z,0.93
2023-02-20T14:01:20.913Z,0.70
2023-02-20T14:04:00.758Z,1.30
2023-02-20T14:06:28.250Z,1.87
2023-02-20T14:09:09.824Z,0.87
2023-02-20T14:11:39.135Z,1.10
2023-02-20T14:14:33.606Z,1.17
2023-02-20T14:17:19.594Z,1.27
2023-02-20T14:20:05.284Z,0.93
2023-02-20T14:22:35.701Z,0.90
2023-02-20T14:25:14.864Z,0.70
2023-02-20T14:27:41.442Z,0.60
2023-02-20T14:30:20.902Z,0.77
2023-02-20T14:32:53.297Z,0.90
2023-02-20T14:35:44.391Z,1.23
2023-02-20T14:38:13.763Z,1.23
2023-02-20T14:40:42.742Z,0.90
2023-02-20T14:43:21.143Z,1.10
2023-02-20T14:45:59.151Z,0.70
2023-02-20T14:48:29.040Z,0.80
2023-02-20T14:51:09.704Z,0.73
2023-02-20T14:53:37.267Z,0.50
2023-02-20T14:56:17.222Z,0.60
2023-02-20T14:58:45.891Z,1.60
2023-02-20T15:01:34.699Z,1.57
2023-02-20T15:04:07.094Z,1.33
2023-02-20T15:06:38.823Z,0.60
2023-02-20T15:09:20.959Z,1.30
2023-02-20T15:11:58.237Z,0.80
2023-02-20T15:14:32.387Z,0.80
2023-02-20T15:17:21.093Z,1.13
2023-02-20T15:19:48.095Z,0.60
2023-02-20T15:22:40.897Z,1.23
2023-02-20T15:25:29.352Z,0.57
2023-02-20T15:28:19.080Z,0.80
2023-02-20T15:31:05.419Z,0.80
2023-02-20T15:33:36.292Z,0.60
2023-02-20T15:36:04.799Z,0.73
2023-02-20T15:38:34.431Z,0.40
2023-02-20T15:41:02.845Z,0.90
2023-02-20T15:43:45.143Z,0.80
2023-02-20T15:46:14.957Z,1.00
2023-02-20T15:48:41.950Z,0.70
2023-02-20T15:51:09.565Z,1.43
2023-02-20T15:53:36.782Z,1.17
2023-02-20T15:56:04.672Z,0.60
2023-02-20T15:58:37.529Z,0.50
2023-02-20T16:01:05.049Z,0.90
2023-02-20T16:03:41.819Z,0.70
2023-02-20T16:06:16.234Z,1.30
2023-02-20T16:08:44.302Z,1.30
2023-02-20T16:11:11.773Z,0.70
2023-02-20T16:13:44.408Z,0.67
2023-02-20T16:16:34.904Z,1.50
2023-02-20T16:19:02.698Z,0.93
2023-02-20T16:21:29.250Z,1.30
2023-02-20T16:23:56.072Z,0.60
2023-02-20T16:26:27.068Z,0.77
2023-02-20T16:29:00.117Z,1.20
2023-02-20T16:31:54.665Z,0.90
2023-02-20T16:34:22.903Z,0.97
2023-02-20T16:36:49.852Z,1.23
2023-02-20T16:39:25.800Z,0.93
2023-02-20T16:41:53.058Z,0.67
2023-02-20T16:44:40.816Z,2.03
2023-02-20T16:47:12.278Z,0.80
2023-02-20T16:49:39.944Z,1.37
2023-02-20T16:52:24.193Z,0.80
2023-02-20T16:54:51.798Z,0.80
2023-02-20T16:57:19.232Z,1.50
2023-02-20T16:59:45.983Z,0.73
2023-02-20T17:02:18.019Z,0.60
2023-02-20T17:04:44.712Z,1.07
2023-02-20T17:07:11.695Z,1.13
2023-02-20T17:09:44.363Z,0.53
2023-02-20T17:12:14.065Z,0.93
2023-02-20T17:14:40.530Z,1.60
2023-02-20T17:17:07.108Z,0.80
2023-02-20T17:19:36.732Z,0.80
2023-02-20T17:22:03.188Z,0.80
2023-02-20T17:24:29.733Z,2.33
2023-02-20T17:26:56.327Z,0.80
2023-02-20T17:29:22.769Z,2.17
2023-02-20T17:31:49.737Z,1.20
2023-02-20T17:34:16.441Z,1.33
2023-02-20T17:36:48.092Z,0.87
2023-02-20T17:39:20.425Z,1.47
2023-02-20T17:41:48.450Z,0.83
2023-02-20T17:44:20.618Z,2.10
2023-02-20T17:46:48.985Z,0.70
2023-02-20T17:49:16.346Z,0.90
2023-02-20T17:51:43.931Z,1.13
2023-02-20T17:54:11.120Z,0.60
2023-02-20T17:56:42.388Z,1.47
2023-02-20T17:59:11.337Z,1.53
2023-02-20T18:01:38.242Z,0.60
2023-02-20T18:04:06.229Z,0.77
2023-02-20T18:06:33.568Z,0.93
2023-02-20T18:09:00.342Z,0.63
2023-02-20T18:11:30.315Z,0.60
2023-02-20T18:13:57.686Z,1.40
2023-02-20T18:16:26.342Z,0.70
2023-02-20T18:18:53.025Z,0.60
2023-02-20T18:21:25.448Z,0.57
2023-02-20T18:23:51.955Z,0.80
2023-02-20T18:26:19.107Z,0.50
2023-02-20T18:28:46.085Z,0.77
2023-02-20T18:31:13.552Z,0.87
2023-02-20T18:33:40.257Z,1.93
2023-02-20T18:36:08.688Z,0.80
2023-02-20T18:38:36.079Z,0.40
2023-02-20T18:41:02.823Z,1.70
2023-02-20T18:43:29.236Z,0.80
2023-02-20T18:45:56.495Z,0.80
2023-02-20T18:48:22.980Z,0.77
2023-02-20T18:50:49.900Z,1.20
2023-02-20T18:53:16.452Z,0.60
2023-02-20T18:55:43.022Z,1.50
2023-02-20T18:58:09.487Z,1.00
2023-02-20T19:00:38.596Z,1.43
2023-02-20T19:03:05.075Z,0.87
2023-02-20T19:05:31.514Z,1.17
2023-02-20T19:07:58.807Z,0.60
2023-02-20T19:10:26.951Z,1.03
2023-02-20T19:12:54.833Z,0.90
2023-02-20T19:15:24.985Z,0.40
2023-02-20T19:17:52.250Z,0.87
2023-02-20T19:20:24.524Z,1.73
2023-02-20T19:22:53.145Z,0.57
2023-02-20T19:25:20.684Z,1.17
2023-02-20T19:27:47.835Z,1.23
2023-02-20T19:30:15.176Z,0.50
2023-02-20T19:32:42.213Z,0.70
2023-02-20T19:35:09.340Z,0.57
2023-02-20T19:37:36.535Z,0.60
2023-02-20T19:40:03.175Z,1.77
2023-02-20T19:42:29.954Z,1.83
2023-02-20T19:44:56.396Z,1.40
2023-02-20T19:47:23.102Z,0.73
2023-02-20T19:49:49.751Z,1.33
2023-02-20T19:52:16.275Z,2.00
2023-02-20T19:54:47.172Z,0.70
2023-02-20T19:57:14.370Z,1.67
2023-02-20T19:59:42.693Z,0.60
2023-02-20T20:02:11.400Z,0.77
2023-02-20T20:04:38.022Z,1.03
2023-02-20T20:07:04.907Z,0.90
2023-02-20T20:09:37.499Z,1.30
2023-02-20T20:12:26.479Z,0.83
2023-02-20T20:14:53.247Z,0.73
2023-02-20T20:17:19.764Z,1.67
2023-02-20T20:19:58.487Z,0.87
2023-02-20T20:22:25.592Z,2.47
2023-02-20T20:24:52.034Z,0.60
2023-02-20T20:27:20.732Z,2.00
2023-02-20T20:29:51.034Z,0.77
2023-02-20T20:32:18.808Z,0.60
2023-02-20T20:34:52.147Z,0.57
2023-02-20T20:37:25.917Z,0.70
2023-02-20T20:39:53.660Z,1.00
2023-02-20T20:42:23.600Z,0.67
2023-02-20T20:44:54.714Z,1.00
2023-02-20T20:47:21.955Z,1.13
2023-02-20T20:49:48.508Z,0.87
2023-02-20T20:52:16.866Z,1.57
2023-02-20T20:54:43.355Z,0.70
2023-02-20T20:57:09.831Z,2.07
2023-02-20T20:59:37.750Z,1.00
2023-02-20T21:02:04.667Z,1.13
2023-02-20T21:04:31.166Z,1.17
2023-02-20T21:06:57.645Z,1.30
2023-02-20T21:09:24.168Z,1.73
2023-02-20T21:11:50.847Z,0.60
2023-02-20T21:14:18.390Z,1.13
2023-02-20T21:16:44.836Z,2.83
2023-02-20T21:19:11.493Z,1.67
2023-02-20T21:21:37.954Z,0.77
2023-02-20T21:24:04.777Z,1.00
2023-02-20T21:26:32.056Z,0.73
2023-02-20T21:28:58.549Z,0.60
2023-02-20T21:31:25.086Z,1.20
2023-02-20T21:33:53.066Z,0.93
2023-02-20T21:36:20.897Z,1.00
2023-02-20T21:38:47.364Z,1.13
2023-02-20T21:41:38.653Z,0.87
2023-02-20T21:44:24.060Z,1.47
2023-02-20T21:46:51.286Z,1.43
2023-02-20T21:49:18.091Z,1.37
2023-02-20T21:51:44.568Z,1.10
2023-02-20T21:54:11.072Z,1.93
2023-02-20T21:56:37.526Z,1.90
2023-02-20T21:59:06.180Z,1.27
2023-02-20T22:01:36.025Z,1.30
2023-02-20T22:04:03.829Z,1.80
2023-02-20T22:06:30.845Z,1.17
2023-02-20T22:09:16.083Z,1.30
2023-02-20T22:12:01.274Z,1.50
2023-02-20T22:14:46.420Z,0.40
2023-02-20T22:17:31.825Z,0.50
2023-02-20T22:20:18.195Z,0.90
2023-02-20T22:23:02.928Z,1.30
2023-02-20T22:25:48.147Z,0.77
2023-02-20T22:28:34.488Z,1.00
2023-02-20T22:31:20.546Z,1.13
2023-02-20T22:34:05.612Z,0.97
2023-02-20T22:36:51.673Z,0.73
2023-02-20T22:39:37.475Z,0.90
2023-02-20T22:42:34.422Z,1.10
2023-02-20T22:45:20.076Z,0.90
2023-02-20T22:48:05.009Z,1.07
2023-02-20T22:50:49.788Z,1.30
2023-02-20T22:53:34.627Z,1.93
2023-02-20T22:56:19.540Z,1.63
2023-02-20T22:59:04.322Z,1.57
2023-02-20T23:01:49.115Z,1.00
2023-02-20T23:04:33.792Z,0.90
2023-02-20T23:07:18.586Z,0.83
2023-02-20T23:10:03.340Z,0.40
2023-02-20T23:12:48.198Z,0.73
2023-02-20T23:15:33.083Z,0.60
2023-02-20T23:18:17.828Z,0.77
2023-02-20T23:21:03.264Z,0.97
2023-02-20T23:23:47.966Z,0.50
2023-02-20T23:26:32.931Z,0.67
2023-02-20T23:29:17.587Z,1.13
2023-02-20T23:32:03.598Z,0.80
2023-02-20T23:34:49.273Z,1.10
2023-02-20T23:37:34.533Z,1.03
2023-02-20T23:40:27.298Z,0.60
2023-02-20T23:43:20.802Z,1.00
2023-02-20T23:46:05.660Z,0.30
2023-02-20T23:48:50.476Z,1.60
2023-02-20T23:51:35.819Z,0.37
2023-02-20T23:54:20.622Z,0.97
2023-02-20T23:57:05.792Z,1.63
2023-02-20T23:59:51.251Z,0.30
